createdAt,value
2019-01-18T00:00:03.661Z,8.89
2019-01-18T00:01:03.588Z,8.84
2019-01-18T00:02:03.518Z,8.86
2019-01-18T00:03:03.441Z,8.95
2019-01-18T00:04:03.368Z,8.96
2019-01-18T00:05:03.294Z,8.84
2019-01-18T00:06:03.235Z,8.92
2019-01-18T00:07:03.132Z,8.86
2019-01-18T00:08:03.059Z,8.96
2019-01-18T00:09:02.982Z,9.01
2019-01-18T00:10:02.935Z,9.01
2019-01-18T00:11:02.847Z,8.95
2019-01-18T00:12:02.764Z,8.99
2019-01-18T00:13:02.704Z,9.02
2019-01-18T00:14:02.625Z,9.01
2019-01-18T00:15:02.547Z,8.99
2019-01-18T00:16:02.473Z,9.04
2019-01-18T00:17:02.401Z,9.11
2019-01-18T00:18:02.316Z,9.15
2019-01-18T00:19:02.255Z,9.14
2019-01-18T00:20:02.164Z,9.11
2019-01-18T00:21:02.098Z,9.13
2019-01-18T00:22:02.028Z,9.11
2019-01-18T00:23:01.951Z,9.08
2019-01-18T00:24:01.878Z,9.24
2019-01-18T00:25:01.805Z,9.15
2019-01-18T00:26:01.734Z,9.15
2019-01-18T00:27:01.643Z,9.24
2019-01-18T00:28:01.577Z,9.18
2019-01-18T00:29:01.519Z,9.11
2019-01-18T00:30:01.478Z,9.17
2019-01-18T00:31:01.348Z,9.20
2019-01-18T00:32:01.290Z,9.23
2019-01-18T00:33:01.194Z,9.24
2019-01-18T00:34:01.139Z,9.24
2019-01-18T00:35:01.056Z,9.24
2019-01-18T00:36:00.994Z,9.24
2019-01-18T00:37:00.913Z,9.31
2019-01-18T00:38:00.830Z,9.24
2019-01-18T00:39:00.750Z,9.26
2019-01-18T00:40:00.688Z,9.28
2019-01-18T00:41:00.600Z,9.17
2019-01-18T00:42:00.535Z,9.15
2019-01-18T00:43:00.464Z,8.99
2019-01-18T00:44:00.378Z,8.98
2019-01-18T00:45:00.308Z,9.05
2019-01-18T00:46:00.241Z,8.95
2019-01-18T00:47:00.162Z,8.95
2019-01-18T00:48:00.093Z,8.99
2019-01-18T00:49:00.019Z,9.01
2019-01-18T00:49:59.930Z,9.02
2019-01-18T00:50:59.856Z,8.96
2019-01-18T00:51:59.793Z,9.01
2019-01-18T00:52:59.717Z,8.84
2019-01-18T00:53:59.628Z,8.86
2019-01-18T00:54:59.564Z,8.80
2019-01-18T00:55:59.482Z,8.83
2019-01-18T00:56:59.413Z,8.92
2019-01-18T00:57:59.349Z,8.83
2019-01-18T00:58:59.267Z,8.95
2019-01-18T00:59:59.218Z,8.92
2019-01-18T01:00:59.112Z,9.02
2019-01-18T01:01:59.050Z,9.05
2019-01-18T01:02:58.976Z,9.02
2019-01-18T01:03:58.903Z,8.91
2019-01-18T01:04:58.828Z,8.80
2019-01-18T01:05:58.743Z,8.84
2019-01-18T01:06:58.662Z,8.87
2019-01-18T01:07:58.596Z,8.99
2019-01-18T01:08:58.525Z,8.96
2019-01-18T01:09:58.454Z,8.94
2019-01-18T01:10:58.378Z,8.99
2019-01-18T01:11:58.305Z,8.99
2019-01-18T01:12:58.225Z,9.10
2019-01-18T01:13:58.158Z,9.10
2019-01-18T01:14:58.064Z,9.05
2019-01-18T01:15:58.006Z,9.15
2019-01-18T01:16:57.925Z,9.15
2019-01-18T01:17:57.844Z,9.05
2019-01-18T01:18:57.775Z,9.11
2019-01-18T01:19:57.712Z,8.99
2019-01-18T01:20:57.628Z,8.96
2019-01-18T01:21:57.555Z,9.04
2019-01-18T01:22:57.479Z,8.89
2019-01-18T01:23:57.409Z,8.95
2019-01-18T01:24:57.337Z,8.84
2019-01-18T01:25:57.252Z,8.86
2019-01-18T01:26:57.174Z,8.79
2019-01-18T01:27:57.097Z,8.71
2019-01-18T01:28:57.024Z,8.73
2019-01-18T01:29:56.958Z,8.70
2019-01-18T01:30:56.880Z,8.81
2019-01-18T01:31:56.804Z,8.87
2019-01-18T01:32:56.724Z,8.87
2019-01-18T01:33:56.667Z,8.87
2019-01-18T01:34:56.589Z,8.87
2019-01-18T01:35:56.515Z,8.94
2019-01-18T01:36:56.437Z,8.81
2019-01-18T01:37:56.354Z,8.83
2019-01-18T01:38:56.278Z,8.94
2019-01-18T01:39:56.214Z,8.94
2019-01-18T01:40:56.147Z,8.94
2019-01-18T01:41:56.063Z,8.98
2019-01-18T01:42:55.977Z,8.91
2019-01-18T01:43:55.917Z,8.94
2019-01-18T01:44:55.845Z,8.86
2019-01-18T01:45:55.762Z,8.95
2019-01-18T01:46:55.680Z,8.89
2019-01-18T01:47:55.620Z,8.94
2019-01-18T01:48:55.540Z,8.96
2019-01-18T01:49:55.481Z,8.95
2019-01-18T01:50:55.382Z,8.94
2019-01-18T01:51:55.314Z,8.89
2019-01-18T01:52:55.234Z,8.99
2019-01-18T01:53:55.168Z,8.86
2019-01-18T01:54:55.094Z,8.92
2019-01-18T01:55:55.026Z,9.05
2019-01-18T01:56:54.947Z,9.01
2019-01-18T01:57:54.867Z,8.95
2019-01-18T01:58:54.796Z,9.01
2019-01-18T01:59:54.722Z,8.95
2019-01-18T02:00:54.646Z,8.95
2019-01-18T02:01:54.560Z,9.02
2019-01-18T02:02:54.500Z,8.92
2019-01-18T02:03:54.424Z,8.94
2019-01-18T02:04:54.347Z,8.96
2019-01-18T02:05:54.268Z,8.89
2019-01-18T02:06:54.194Z,8.89
2019-01-18T02:07:54.145Z,8.81
2019-01-18T02:08:54.057Z,8.83
2019-01-18T02:09:53.975Z,8.83
2019-01-18T02:10:53.903Z,8.73
2019-01-18T02:11:53.833Z,8.89
2019-01-18T02:12:53.749Z,8.81
2019-01-18T02:13:53.666Z,8.94
2019-01-18T02:14:53.594Z,8.95
2019-01-18T02:15:53.514Z,8.84
2019-01-18T02:16:53.464Z,8.92
2019-01-18T02:17:53.378Z,8.91
2019-01-18T02:18:53.303Z,8.87
2019-01-18T02:19:53.216Z,8.94
2019-01-18T02:20:53.148Z,8.92
2019-01-18T02:21:53.089Z,8.84
2019-01-18T02:22:53.021Z,8.94
2019-01-18T02:23:52.933Z,8.86
2019-01-18T02:24:52.856Z,8.89
2019-01-18T02:25:52.783Z,8.91
2019-01-18T02:26:52.690Z,8.83
2019-01-18T02:27:52.617Z,8.79
2019-01-18T02:28:52.561Z,8.81
2019-01-18T02:29:56.554Z,8.94
2019-01-18T02:30:52.408Z,8.96
2019-01-18T02:31:52.334Z,8.87
2019-01-18T02:32:52.255Z,8.94
2019-01-18T02:33:52.179Z,8.83
2019-01-18T02:34:52.116Z,8.76
2019-01-18T02:35:52.042Z,8.71
2019-01-18T02:36:51.962Z,8.83
2019-01-18T02:37:51.871Z,8.80
2019-01-18T02:38:51.816Z,8.79
2019-01-18T02:39:51.745Z,8.77
2019-01-18T02:40:51.670Z,8.84
2019-01-18T02:41:51.585Z,8.73
2019-01-18T02:42:51.555Z,8.86
2019-01-18T02:43:51.440Z,8.70
2019-01-18T02:44:51.359Z,8.77
2019-01-18T02:45:51.278Z,8.76
2019-01-18T02:46:51.217Z,8.70
2019-01-18T02:47:51.126Z,8.70
2019-01-18T02:48:51.060Z,8.71
2019-01-18T02:49:50.991Z,8.66
2019-01-18T02:50:50.919Z,8.70
2019-01-18T02:51:50.829Z,8.66
2019-01-18T02:52:50.750Z,8.59
2019-01-18T02:53:50.692Z,8.55
2019-01-18T02:54:50.623Z,8.48
2019-01-18T02:55:50.541Z,8.41
2019-01-18T02:56:50.464Z,8.48
2019-01-18T02:57:50.396Z,8.45
2019-01-18T02:58:50.323Z,8.50
2019-01-18T02:59:50.239Z,8.43
2019-01-18T03:00:50.164Z,8.43
2019-01-18T03:01:50.082Z,8.33
2019-01-18T03:02:50.006Z,8.30
2019-01-18T03:03:49.934Z,8.23
2019-01-18T03:04:49.859Z,8.20
2019-01-18T03:05:49.799Z,8.19
2019-01-18T03:06:49.719Z,8.33
2019-01-18T03:07:49.630Z,8.25
2019-01-18T03:08:49.570Z,8.40
2019-01-18T03:09:49.492Z,8.23
2019-01-18T03:10:49.445Z,8.36
2019-01-18T03:11:49.382Z,8.20
2019-01-18T03:12:49.258Z,8.23
2019-01-18T03:13:49.201Z,8.33
2019-01-18T03:14:49.110Z,8.20
2019-01-18T03:15:49.037Z,8.36
2019-01-18T03:16:48.974Z,8.43
2019-01-18T03:17:48.891Z,8.43
2019-01-18T03:18:48.827Z,8.38
2019-01-18T03:19:48.744Z,8.43
2019-01-18T03:20:48.657Z,8.45
2019-01-18T03:21:48.580Z,8.47
2019-01-18T03:22:48.513Z,8.59
2019-01-18T03:23:48.475Z,8.61
2019-01-18T03:24:48.358Z,8.71
2019-01-18T03:25:48.284Z,8.73
2019-01-18T03:26:48.207Z,8.77
2019-01-18T03:27:48.133Z,8.70
2019-01-18T03:28:48.068Z,8.70
2019-01-18T03:29:48.020Z,8.73
2019-01-18T03:30:47.904Z,8.70
2019-01-18T03:31:47.857Z,8.66
2019-01-18T03:32:47.765Z,8.56
2019-01-18T03:33:47.694Z,8.61
2019-01-18T03:34:47.620Z,8.58
2019-01-18T03:35:47.545Z,8.58
2019-01-18T03:36:47.462Z,8.70
2019-01-18T03:37:47.386Z,8.48
2019-01-18T03:38:47.321Z,8.47
2019-01-18T03:39:47.244Z,8.44
2019-01-18T03:40:47.161Z,8.43
2019-01-18T03:41:47.078Z,8.44
2019-01-18T03:42:47.028Z,8.38
2019-01-18T03:43:46.953Z,8.48
2019-01-18T03:44:46.871Z,8.47
2019-01-18T03:45:46.789Z,8.47
2019-01-18T03:46:46.720Z,8.44
2019-01-18T03:47:46.644Z,8.45
2019-01-18T03:48:46.558Z,8.41
2019-01-18T03:49:46.502Z,8.22
2019-01-18T03:50:46.499Z,8.19
2019-01-18T03:51:46.338Z,8.23
2019-01-18T03:52:46.271Z,8.37
2019-01-18T03:53:46.195Z,8.30
2019-01-18T03:54:46.107Z,8.30
2019-01-18T03:55:46.036Z,8.28
2019-01-18T03:56:45.980Z,8.36
2019-01-18T03:57:45.893Z,8.22
2019-01-18T03:58:45.830Z,8.29
2019-01-18T03:59:45.743Z,8.30
2019-01-18T04:00:45.652Z,8.38
2019-01-18T04:01:45.580Z,8.29
2019-01-18T04:02:45.513Z,8.30
2019-01-18T04:03:45.447Z,8.25
2019-01-18T04:04:45.374Z,8.20
2019-01-18T04:05:45.282Z,8.12
2019-01-18T04:06:45.211Z,8.08
2019-01-18T04:07:45.137Z,8.10
2019-01-18T04:08:45.074Z,8.04
2019-01-18T04:09:44.990Z,8.10
2019-01-18T04:10:44.904Z,8.15
2019-01-18T04:11:44.832Z,8.19
2019-01-18T04:12:44.765Z,8.19
2019-01-18T04:13:44.693Z,8.33
2019-01-18T04:14:44.618Z,8.36
2019-01-18T04:15:44.542Z,8.30
2019-01-18T04:16:44.458Z,8.33
2019-01-18T04:17:44.375Z,8.30
2019-01-18T04:18:44.312Z,8.30
2019-01-18T04:19:44.233Z,8.23
2019-01-18T04:20:44.165Z,8.18
2019-01-18T04:21:44.090Z,8.19
2019-01-18T04:22:44.013Z,7.97
2019-01-18T04:23:43.942Z,7.97
2019-01-18T04:24:43.868Z,8.02
2019-01-18T04:25:43.780Z,7.89
2019-01-18T04:26:43.713Z,7.75
2019-01-18T04:27:43.640Z,7.83
2019-01-18T04:28:43.547Z,7.90
2019-01-18T04:29:43.476Z,7.98
2019-01-18T04:30:43.405Z,8.04
2019-01-18T04:31:43.325Z,8.08
2019-01-18T04:32:43.257Z,8.22
2019-01-18T04:33:43.189Z,8.22
2019-01-18T04:34:43.113Z,8.20
2019-01-18T04:35:43.037Z,8.18
2019-01-18T04:36:42.948Z,8.12
2019-01-18T04:37:42.872Z,8.10
2019-01-18T04:38:42.799Z,8.07
2019-01-18T04:39:42.721Z,8.05
2019-01-18T04:40:42.654Z,8.07
2019-01-18T04:41:42.585Z,7.87
2019-01-18T04:42:42.501Z,8.00
2019-01-18T04:43:42.420Z,8.04
2019-01-18T04:44:42.357Z,8.07
2019-01-18T04:45:42.282Z,7.98
2019-01-18T04:46:42.205Z,7.86
2019-01-18T04:47:42.148Z,7.80
2019-01-18T04:48:42.062Z,7.87
2019-01-18T04:49:41.976Z,7.82
2019-01-18T04:50:41.890Z,7.89
2019-01-18T04:51:41.818Z,7.92
2019-01-18T04:52:41.751Z,8.07
2019-01-18T04:53:41.691Z,8.04
2019-01-18T04:54:41.619Z,8.08
2019-01-18T04:55:41.547Z,8.20
2019-01-18T04:56:41.444Z,8.12
2019-01-18T04:57:41.383Z,8.23
2019-01-18T04:58:41.301Z,8.16
2019-01-18T04:59:41.228Z,8.30
2019-01-18T05:00:41.683Z,8.25
2019-01-18T05:01:41.075Z,8.28
2019-01-18T05:02:40.990Z,8.16
2019-01-18T05:03:40.912Z,8.20
2019-01-18T05:04:40.845Z,8.22
2019-01-18T05:05:40.772Z,8.19
2019-01-18T05:06:40.693Z,8.23
2019-01-18T05:07:40.614Z,8.30
2019-01-18T05:08:40.549Z,8.36
2019-01-18T05:09:40.471Z,8.28
2019-01-18T05:10:40.409Z,8.28
2019-01-18T05:11:40.326Z,8.41
2019-01-18T05:12:40.255Z,8.44
2019-01-18T05:13:40.167Z,8.45
2019-01-18T05:14:40.102Z,8.45
2019-01-18T05:15:40.023Z,8.44
2019-01-18T05:16:39.940Z,8.45
2019-01-18T05:17:39.866Z,8.52
2019-01-18T05:18:39.809Z,8.52
2019-01-18T05:19:39.716Z,8.52
2019-01-18T05:20:39.646Z,8.55
2019-01-18T05:21:39.581Z,8.48
2019-01-18T05:22:39.496Z,8.48
2019-01-18T05:23:39.423Z,8.36
2019-01-18T05:24:39.342Z,8.33
2019-01-18T05:25:39.278Z,8.40
2019-01-18T05:26:39.186Z,8.22
2019-01-18T05:27:39.112Z,8.19
2019-01-18T05:28:39.051Z,8.23
2019-01-18T05:29:38.972Z,8.22
2019-01-18T05:30:38.883Z,8.22
2019-01-18T05:31:38.812Z,8.22
2019-01-18T05:32:38.745Z,8.18
2019-01-18T05:33:38.675Z,8.19
2019-01-18T05:34:38.602Z,8.33
2019-01-18T05:35:38.519Z,8.30
2019-01-18T05:36:38.431Z,8.29
2019-01-18T05:37:38.363Z,8.34
2019-01-18T05:38:38.300Z,8.30
2019-01-18T05:39:38.214Z,8.37
2019-01-18T05:40:38.145Z,8.43
2019-01-18T05:41:38.073Z,8.26
2019-01-18T05:42:38.001Z,8.33
2019-01-18T05:43:37.923Z,8.20
2019-01-18T05:44:37.849Z,8.19
2019-01-18T05:45:37.758Z,8.22
2019-01-18T05:46:37.696Z,8.37
2019-01-18T05:47:37.617Z,8.18
2019-01-18T05:48:37.532Z,8.37
2019-01-18T05:49:37.455Z,8.25
2019-01-18T05:50:37.392Z,8.11
2019-01-18T05:51:37.312Z,8.07
2019-01-18T05:52:37.264Z,8.02
2019-01-18T05:53:37.172Z,8.04
2019-01-18T05:54:37.095Z,8.05
2019-01-18T05:55:37.019Z,8.22
2019-01-18T05:56:36.967Z,8.12
2019-01-18T05:57:36.852Z,8.16
2019-01-18T05:58:36.800Z,8.23
2019-01-18T05:59:36.708Z,8.16
2019-01-18T06:00:36.642Z,8.00
2019-01-18T06:01:36.573Z,8.05
2019-01-18T06:02:36.497Z,8.07
2019-01-18T06:03:36.406Z,8.12
2019-01-18T06:04:36.345Z,8.12
2019-01-18T06:05:36.262Z,8.19
2019-01-18T06:06:36.191Z,8.23
2019-01-18T06:07:36.120Z,8.36
2019-01-18T06:08:36.030Z,8.26
2019-01-18T06:09:35.972Z,8.28
2019-01-18T06:10:35.894Z,8.20
2019-01-18T06:11:35.816Z,8.22
2019-01-18T06:12:35.735Z,8.16
2019-01-18T06:13:35.665Z,8.25
2019-01-18T06:14:35.582Z,8.22
2019-01-18T06:15:35.539Z,8.22
2019-01-18T06:16:35.440Z,8.30
2019-01-18T06:17:35.365Z,8.20
2019-01-18T06:18:35.282Z,8.26
2019-01-18T06:19:35.206Z,8.43
2019-01-18T06:20:35.139Z,8.33
2019-01-18T06:21:35.065Z,8.37
2019-01-18T06:22:34.989Z,8.30
2019-01-18T06:23:34.918Z,8.36
2019-01-18T06:24:34.830Z,8.16
2019-01-18T06:25:34.753Z,8.15
2019-01-18T06:26:34.733Z,8.15
2019-01-18T06:27:34.624Z,8.15
2019-01-18T06:28:34.542Z,8.20
2019-01-18T06:29:34.465Z,8.23
2019-01-18T06:30:34.391Z,8.18
2019-01-18T06:31:34.309Z,8.20
2019-01-18T06:32:34.241Z,8.29
2019-01-18T06:33:34.178Z,8.22
2019-01-18T06:34:34.155Z,8.20
2019-01-18T06:35:34.013Z,8.22
2019-01-18T06:36:33.926Z,8.16
2019-01-18T06:37:33.850Z,8.18
2019-01-18T06:38:33.823Z,8.10
2019-01-18T06:39:33.702Z,8.18
2019-01-18T06:40:33.637Z,8.19
2019-01-18T06:41:33.567Z,8.25
2019-01-18T06:42:33.481Z,8.04
2019-01-18T06:43:33.414Z,8.00
2019-01-18T06:44:33.328Z,8.12
2019-01-18T06:45:33.252Z,8.02
2019-01-18T06:46:33.192Z,8.02
2019-01-18T06:47:33.099Z,8.05
2019-01-18T06:48:33.039Z,8.07
2019-01-18T06:49:32.959Z,8.05
2019-01-18T06:50:32.870Z,8.02
2019-01-18T06:51:32.800Z,7.97
2019-01-18T06:52:32.742Z,7.92
2019-01-18T06:53:32.656Z,7.95
2019-01-18T06:54:32.583Z,7.85
2019-01-18T06:55:32.510Z,7.72
2019-01-18T06:56:32.584Z,7.55
2019-01-18T06:57:32.346Z,7.71
2019-01-18T06:58:32.287Z,7.64
2019-01-18T06:59:32.198Z,7.49
2019-01-18T07:00:32.131Z,7.49
2019-01-18T07:01:32.054Z,7.53
2019-01-18T07:02:31.983Z,7.68
2019-01-18T07:03:31.904Z,7.64
2019-01-18T07:04:31.818Z,7.69
2019-01-18T07:05:31.736Z,7.61
2019-01-18T07:06:31.677Z,7.58
2019-01-18T07:07:31.599Z,7.69
2019-01-18T07:08:31.517Z,7.67
2019-01-18T07:09:31.442Z,7.71
2019-01-18T07:10:31.372Z,7.75
2019-01-18T07:11:31.291Z,7.80
2019-01-18T07:12:31.224Z,7.92
2019-01-18T07:13:31.150Z,7.90
2019-01-18T07:14:31.079Z,8.01
2019-01-18T07:15:31.007Z,7.83
2019-01-18T07:16:30.929Z,7.85
2019-01-18T07:17:30.845Z,7.75
2019-01-18T07:18:30.774Z,7.72
2019-01-18T07:19:30.696Z,7.80
2019-01-18T07:20:30.625Z,7.85
2019-01-18T07:21:30.583Z,7.82
2019-01-18T07:22:30.473Z,7.97
2019-01-18T07:23:30.399Z,7.90
2019-01-18T07:24:30.311Z,7.90
2019-01-18T07:25:30.253Z,7.93
2019-01-18T07:26:30.164Z,7.77
2019-01-18T07:27:30.098Z,7.77
2019-01-18T07:28:30.021Z,7.74
2019-01-18T07:29:29.947Z,7.69
2019-01-18T07:30:29.874Z,7.57
2019-01-18T07:31:29.802Z,7.83
2019-01-18T07:32:29.725Z,7.83
2019-01-18T07:33:29.636Z,7.83
2019-01-18T07:34:29.580Z,8.01
2019-01-18T07:35:29.488Z,8.02
2019-01-18T07:36:29.433Z,8.11
2019-01-18T07:37:29.347Z,8.08
2019-01-18T07:38:29.275Z,8.16
2019-01-18T07:39:29.180Z,8.15
2019-01-18T07:40:29.120Z,8.22
2019-01-18T07:41:29.045Z,8.20
2019-01-18T07:42:28.968Z,8.19
2019-01-18T07:43:28.894Z,8.19
2019-01-18T07:44:28.809Z,8.19
2019-01-18T07:45:28.738Z,8.22
2019-01-18T07:46:28.669Z,8.28
2019-01-18T07:47:28.595Z,8.37
2019-01-18T07:48:28.504Z,8.37
2019-01-18T07:49:28.457Z,8.37
2019-01-18T07:50:28.359Z,8.47
2019-01-18T07:51:28.277Z,8.41
2019-01-18T07:52:28.217Z,8.45
2019-01-18T07:53:28.145Z,8.55
2019-01-18T07:54:28.060Z,8.53
2019-01-18T07:55:27.982Z,8.61
2019-01-18T07:56:27.917Z,8.66
2019-01-18T07:57:27.844Z,8.66
2019-01-18T07:58:27.771Z,8.68
2019-01-18T07:59:27.693Z,8.77
2019-01-18T08:00:27.625Z,8.81
2019-01-18T08:01:27.549Z,8.84
2019-01-18T08:02:27.462Z,8.81
2019-01-18T08:03:27.382Z,8.71
2019-01-18T08:04:27.317Z,8.56
2019-01-18T08:05:27.253Z,8.55
2019-01-18T08:06:27.172Z,8.66
2019-01-18T08:07:27.095Z,8.76
2019-01-18T08:08:27.016Z,8.65
2019-01-18T08:09:26.944Z,8.68
2019-01-18T08:10:26.873Z,8.70
2019-01-18T08:11:26.797Z,8.76
2019-01-18T08:12:26.727Z,8.79
2019-01-18T08:13:26.639Z,8.70
2019-01-18T08:14:26.567Z,8.66
2019-01-18T08:15:26.498Z,8.66
2019-01-18T08:16:26.426Z,8.65
2019-01-18T08:17:26.353Z,8.63
2019-01-18T08:18:26.281Z,8.61
2019-01-18T08:19:26.196Z,8.55
2019-01-18T08:20:26.130Z,8.70
2019-01-18T08:21:26.057Z,8.55
2019-01-18T08:22:25.983Z,8.48
2019-01-18T08:23:25.909Z,8.58
2019-01-18T08:24:25.818Z,8.66
2019-01-18T08:25:25.746Z,8.80
2019-01-18T08:26:25.679Z,8.77
2019-01-18T08:27:25.606Z,8.83
2019-01-18T08:28:25.541Z,8.76
2019-01-18T08:29:25.450Z,8.80
2019-01-18T08:30:25.387Z,8.68
2019-01-18T08:31:28.899Z,8.62
2019-01-18T08:32:25.235Z,8.70
2019-01-18T08:33:25.168Z,8.65
2019-01-18T08:34:25.085Z,8.76
2019-01-18T08:35:25.011Z,8.71
2019-01-18T08:36:24.926Z,8.63
2019-01-18T08:37:24.865Z,8.66
2019-01-18T08:38:24.769Z,8.66
2019-01-18T08:39:24.718Z,8.53
2019-01-18T08:40:24.631Z,8.53
2019-01-18T08:41:24.559Z,8.55
2019-01-18T08:42:24.480Z,8.58
2019-01-18T08:43:24.421Z,8.59
2019-01-18T08:44:24.338Z,8.59
2019-01-18T08:45:24.267Z,8.59
2019-01-18T08:46:24.190Z,8.53
2019-01-18T08:47:24.154Z,8.53
2019-01-18T08:48:24.034Z,8.47
2019-01-18T08:49:23.964Z,8.48
2019-01-18T08:50:23.884Z,8.41
2019-01-18T08:51:23.821Z,8.44
2019-01-18T08:52:23.744Z,8.28
2019-01-18T08:53:23.667Z,8.40
2019-01-18T08:54:23.600Z,8.47
2019-01-18T08:55:23.519Z,8.53
2019-01-18T08:56:23.434Z,8.56
2019-01-18T08:57:23.362Z,8.59
2019-01-18T08:58:23.299Z,8.63
2019-01-18T08:59:23.224Z,8.74
2019-01-18T09:00:23.136Z,8.76
2019-01-18T09:01:23.060Z,8.81
2019-01-18T09:02:22.990Z,8.80
2019-01-18T09:03:22.932Z,8.80
2019-01-18T09:04:22.847Z,8.68
2019-01-18T09:05:22.781Z,8.68
2019-01-18T09:06:22.702Z,8.68
2019-01-18T09:07:22.631Z,8.79
2019-01-18T09:08:22.554Z,8.76
2019-01-18T09:09:22.481Z,8.73
2019-01-18T09:10:22.392Z,8.70
2019-01-18T09:11:22.317Z,8.80
2019-01-18T09:12:22.256Z,8.65
2019-01-18T09:13:22.178Z,8.66
2019-01-18T09:14:22.096Z,8.66
2019-01-18T09:15:22.026Z,8.56
2019-01-18T09:16:21.964Z,8.61
2019-01-18T09:17:21.880Z,8.53
2019-01-18T09:18:21.809Z,8.66
2019-01-18T09:19:21.731Z,8.68
2019-01-18T09:20:21.676Z,8.56
2019-01-18T09:21:21.574Z,8.44
2019-01-18T09:22:21.513Z,8.41
2019-01-18T09:23:21.438Z,8.36
2019-01-18T09:24:21.362Z,8.36
2019-01-18T09:25:21.293Z,8.38
2019-01-18T09:26:21.202Z,8.47
2019-01-18T09:27:21.152Z,8.47
2019-01-18T09:28:21.067Z,8.63
2019-01-18T09:29:20.997Z,8.62
2019-01-18T09:30:20.904Z,8.73
2019-01-18T09:31:20.832Z,8.86
2019-01-18T09:32:20.768Z,8.83
2019-01-18T09:33:20.698Z,8.89
2019-01-18T09:34:20.617Z,8.81
2019-01-18T09:35:20.554Z,8.94
2019-01-18T09:36:20.467Z,8.95
2019-01-18T09:37:20.384Z,8.98
2019-01-18T09:38:20.312Z,9.01
2019-01-18T09:39:20.243Z,9.01
2019-01-18T09:40:20.177Z,8.92
2019-01-18T09:41:20.106Z,8.94
2019-01-18T09:42:20.028Z,8.89
2019-01-18T09:43:19.950Z,8.95
2019-01-18T09:44:19.883Z,9.04
2019-01-18T09:45:19.812Z,9.02
2019-01-18T09:46:19.730Z,8.98
2019-01-18T09:47:19.657Z,9.10
2019-01-18T09:48:19.587Z,9.21
2019-01-18T09:49:19.498Z,9.32
2019-01-18T09:50:19.438Z,9.26
2019-01-18T09:51:19.364Z,9.28
2019-01-18T09:52:19.285Z,9.36
2019-01-18T09:53:19.213Z,9.51
2019-01-18T09:54:19.139Z,9.51
2019-01-18T09:55:19.071Z,9.42
2019-01-18T09:56:18.980Z,9.48
2019-01-18T09:57:18.920Z,9.46
2019-01-18T09:58:18.850Z,9.60
2019-01-18T09:59:18.756Z,9.69
2019-01-18T10:00:18.704Z,9.71
2019-01-18T10:01:18.621Z,9.72
2019-01-18T10:02:18.567Z,9.54
2019-01-18T10:03:18.466Z,9.50
2019-01-18T10:04:18.423Z,9.60
2019-01-18T10:05:18.333Z,9.53
2019-01-18T10:06:18.262Z,9.53
2019-01-18T10:07:18.196Z,9.54
2019-01-18T10:08:18.103Z,9.51
2019-01-18T10:09:18.030Z,9.53
2019-01-18T10:10:17.974Z,9.60
2019-01-18T10:11:17.889Z,9.60
2019-01-18T10:12:17.829Z,9.69
2019-01-18T10:13:17.752Z,9.74
2019-01-18T10:14:17.678Z,9.90
2019-01-18T10:15:17.605Z,9.96
2019-01-18T10:16:17.521Z,10.14
2019-01-18T10:17:17.449Z,10.17
2019-01-18T10:18:17.383Z,10.30
2019-01-18T10:19:17.314Z,10.34
2019-01-18T10:20:17.233Z,10.38
2019-01-18T10:21:17.160Z,10.36
2019-01-18T10:22:17.082Z,10.34
2019-01-18T10:23:17.016Z,10.30
2019-01-18T10:24:16.952Z,10.26
2019-01-18T10:25:16.875Z,10.18
2019-01-18T10:26:16.800Z,10.30
2019-01-18T10:27:16.722Z,10.23
2019-01-18T10:28:16.657Z,10.40
2019-01-18T10:29:16.591Z,10.51
2019-01-18T10:30:16.518Z,10.52
2019-01-18T10:31:16.446Z,10.55
2019-01-18T10:32:16.381Z,10.60
2019-01-18T10:33:16.286Z,10.71
2019-01-18T10:34:16.232Z,10.79
2019-01-18T10:35:16.158Z,10.85
2019-01-18T10:36:16.071Z,10.94
2019-01-18T10:37:16.006Z,10.86
2019-01-18T10:38:15.930Z,10.88
2019-01-18T10:39:15.873Z,10.96
2019-01-18T10:40:15.797Z,10.86
2019-01-18T10:41:15.727Z,10.99
2019-01-18T10:42:15.665Z,11.07
2019-01-18T10:43:15.582Z,11.10
2019-01-18T10:44:15.507Z,11.18
2019-01-18T10:45:15.426Z,11.17
2019-01-18T10:46:15.378Z,11.15
2019-01-18T10:47:15.293Z,11.21
2019-01-18T10:48:15.235Z,11.15
2019-01-18T10:49:15.157Z,11.06
2019-01-18T10:50:15.072Z,10.97
2019-01-18T10:51:15.010Z,10.94
2019-01-18T10:52:14.940Z,10.92
2019-01-18T10:53:14.863Z,10.94
2019-01-18T10:54:14.797Z,10.99
2019-01-18T10:55:14.730Z,11.04
2019-01-18T10:56:14.642Z,11.07
2019-01-18T10:57:14.570Z,11.19
2019-01-18T10:58:14.516Z,11.10
2019-01-18T10:59:14.428Z,11.14
2019-01-18T11:00:14.376Z,11.00
2019-01-18T11:01:14.303Z,11.14
2019-01-18T11:02:14.228Z,11.09
2019-01-18T11:03:14.155Z,11.11
2019-01-18T11:04:14.072Z,11.14
2019-01-18T11:05:13.996Z,11.14
2019-01-18T11:06:13.940Z,11.10
2019-01-18T11:07:13.872Z,11.07
2019-01-18T11:08:17.366Z,10.94
2019-01-18T11:09:13.714Z,10.88
2019-01-18T11:10:13.688Z,10.84
2019-01-18T11:11:13.587Z,10.88
2019-01-18T11:12:13.515Z,10.89
2019-01-18T11:13:13.442Z,11.02
2019-01-18T11:14:13.370Z,11.07
2019-01-18T11:15:13.301Z,11.19
2019-01-18T11:16:13.214Z,11.27
2019-01-18T11:17:13.141Z,11.21
2019-01-18T11:18:13.077Z,11.40
2019-01-18T11:19:13.737Z,11.35
2019-01-18T11:20:12.937Z,11.39
2019-01-18T11:21:12.873Z,11.47
2019-01-18T11:22:12.818Z,11.43
2019-01-18T11:23:12.743Z,11.49
2019-01-18T11:24:12.656Z,11.49
2019-01-18T11:25:12.584Z,11.61
2019-01-18T11:26:12.514Z,11.57
2019-01-18T11:27:12.462Z,11.57
2019-01-18T11:28:12.361Z,11.39
2019-01-18T11:29:12.299Z,11.27
2019-01-18T11:30:12.223Z,11.17
2019-01-18T11:31:12.157Z,11.10
2019-01-18T11:32:13.805Z,10.96
2019-01-18T11:33:12.004Z,10.89
2019-01-18T11:34:11.933Z,10.92
2019-01-18T11:35:11.857Z,10.91
2019-01-18T11:36:11.799Z,10.89
2019-01-18T11:37:11.729Z,10.97
2019-01-18T11:38:11.642Z,10.89
2019-01-18T11:39:11.589Z,11.03
2019-01-18T11:40:11.513Z,11.03
2019-01-18T11:41:11.439Z,11.11
2019-01-18T11:42:12.737Z,11.11
2019-01-18T11:43:11.298Z,10.99
2019-01-18T11:44:11.259Z,10.96
2019-01-18T11:45:11.140Z,11.00
2019-01-18T11:46:11.068Z,11.00
2019-01-18T11:47:10.998Z,11.10
2019-01-18T11:48:10.943Z,11.14
2019-01-18T11:49:10.868Z,11.06
2019-01-18T11:50:10.794Z,11.06
2019-01-18T11:51:10.716Z,11.10
2019-01-18T11:52:10.641Z,10.96
2019-01-18T11:53:10.564Z,11.00
2019-01-18T11:54:10.501Z,11.09
2019-01-18T11:55:10.433Z,11.18
2019-01-18T11:56:10.350Z,11.14
2019-01-18T11:57:10.278Z,11.09
2019-01-18T11:58:10.207Z,11.10
2019-01-18T11:59:10.164Z,11.11
2019-01-18T12:00:10.090Z,11.15
2019-01-18T12:01:10.005Z,11.22
2019-01-18T12:02:15.162Z,11.24
2019-01-18T12:03:09.847Z,11.29
2019-01-18T12:04:09.805Z,11.27
2019-01-18T12:05:09.714Z,11.36
2019-01-18T12:06:09.643Z,11.37
2019-01-18T12:07:09.569Z,11.36
2019-01-18T12:08:09.497Z,11.35
2019-01-18T12:09:09.422Z,11.33
2019-01-18T12:10:09.355Z,11.32
2019-01-18T12:11:09.286Z,11.35
2019-01-18T12:12:09.217Z,11.40
2019-01-18T12:13:09.124Z,11.43
2019-01-18T12:14:09.075Z,11.43
2019-01-18T12:15:09.002Z,11.46
2019-01-18T12:16:08.924Z,11.46
2019-01-18T12:17:08.852Z,11.44
2019-01-18T12:18:08.778Z,11.49
2019-01-18T12:19:08.719Z,11.42
2019-01-18T12:20:08.630Z,11.37
2019-01-18T12:21:08.571Z,11.46
2019-01-18T12:22:08.483Z,11.46
2019-01-18T12:23:08.412Z,11.43
2019-01-18T12:24:08.361Z,11.49
2019-01-18T12:25:08.281Z,11.42
2019-01-18T12:26:08.198Z,11.46
2019-01-18T12:27:08.129Z,11.46
2019-01-18T12:28:08.064Z,11.39
2019-01-18T12:29:07.989Z,11.32
2019-01-18T12:30:07.924Z,11.11
2019-01-18T12:31:07.849Z,11.06
2019-01-18T12:32:07.785Z,11.03
2019-01-18T12:33:07.696Z,11.06
2019-01-18T12:34:07.636Z,10.99
2019-01-18T12:35:07.565Z,11.04
2019-01-18T12:36:07.485Z,11.07
2019-01-18T12:37:07.409Z,11.02
2019-01-18T12:38:07.357Z,11.10
2019-01-18T12:39:07.286Z,11.14
2019-01-18T12:40:07.206Z,11.09
2019-01-18T12:41:07.127Z,11.03
2019-01-18T12:42:07.052Z,10.94
2019-01-18T12:43:06.998Z,11.04
2019-01-18T12:44:06.914Z,11.14
2019-01-18T12:45:06.845Z,11.14
2019-01-18T12:46:06.769Z,11.14
2019-01-18T12:47:06.705Z,11.17
2019-01-18T12:48:06.629Z,11.03
2019-01-18T12:49:06.557Z,11.07
2019-01-18T12:50:06.469Z,11.10
2019-01-18T12:51:06.399Z,11.19
2019-01-18T12:52:06.333Z,11.22
2019-01-18T12:53:06.262Z,11.25
2019-01-18T12:54:06.195Z,11.25
2019-01-18T12:55:06.122Z,11.24
2019-01-18T12:56:06.053Z,11.21
2019-01-18T12:57:05.990Z,11.25
2019-01-18T12:58:05.909Z,11.28
2019-01-18T12:59:05.833Z,11.32
2019-01-18T13:00:05.750Z,11.35
2019-01-18T13:01:05.699Z,11.43
2019-01-18T13:02:05.608Z,11.43
2019-01-18T13:03:05.535Z,11.47
2019-01-18T13:04:08.282Z,11.44
2019-01-18T13:05:05.397Z,11.36
2019-01-18T13:06:05.329Z,11.42
2019-01-18T13:07:05.255Z,11.37
2019-01-18T13:08:05.173Z,11.19
2019-01-18T13:09:05.102Z,11.17
2019-01-18T13:10:11.679Z,11.18
2019-01-18T13:11:04.964Z,11.02